Etusivu
METAR-TAF:

METAR-TAF

Lentoasemat :

Anchorage, Alaska, Yhdysvallat

Leveyspiiri: 61-13N, Pituuspiiri: 149-51W, korkeus merenpinnasta: 42 m

Tämänhetkinen sää

Tämä raportti tehtiin 48 minuuttia sitten, kello 15.53 UTC
Tuuli 3 kn eri suunnista
Lämpötila -2°C
Kosteus 80%
Ilmanpaine 994 hPa
Näkyvyys: 16.1 km
Muutamia pilviä 2000 ft:n korkeudessa
Hajonneita pilviä 7000 ft:n korkeudessa
Hajonneita pilviä 9000 ft:n korkeudessa

METAR: PAMR 131553Z VRB03KT 10SM FEW020 BKN070 BKN090 M02/M05 A2936 RMK AO2 SLP944 T10171050

Aika: 07:41 (16:41 UTC)


TAF: puuttuu

Säähavainnot ja -ennusteet yli 4000 lentoasemalta (METAR- ja TAF-raportit).

Käytössä olevat sääasemat on merkitty karttaan keltaisilla ja punaisilla pisteillä.

Aseta hiiri pisteen päälle nähdäksesi sääaseman nimen.

Klikkaa sitten nähdäksesi säähavainnot ja -ennusteet.

Kartan vaihtaminen: klikkaa mustalla rastilla varustettuja vihreitä pisteitä, niin voit zoomata sisään; viivalla varustettua vihreää pistettä, niin voit zoomata ulos tai vihreitä nuolia, niin pääset viereisille kartoille.


METAR-TAF: